Royal Melbourne — WDC2865 — position and weather

sailwx.info

Track history (hours):
 
Tides and Currents Weather Stations Pressure Air Temp Water Temp Dewpoint Dewpoint Depression Visibility Wind Speed Wind Dir Waves Ship Positions

Royal Melbourne

Owner: Harley Marine Services, Inc, Seattle, WA. More information available from US FCC via Universal Licensing System and Coast Guard Vessel Documentation Center.

Last reported at 2017-May-27 06:00 UTC. Time now 2017-May-27 06:03 UTC.
Position N 37°55' W 122°22'.

Length 30 m; draft 2 m.

Type: Tug. MMSI: 366998830.

Date/timePositionNaut miles runAvg speedWind from/ knotsBaromVisibWave heightAir tempDewpointWater temp
2017-May-27 06:00N 37°55' W 122°22'0 0.0
2017-May-27 05:30N 37°55' W 122°22'0 0.0
2017-May-27 05:00N 37°55' W 122°22'0 0.3
2017-May-27 04:30N 37°55' W 122°22'3 5.1
2017-May-27 04:00N 37°53' W 122°24'4 7.9
2017-May-27 03:30N 37°49' W 122°22'4 7.4
2017-May-27 03:00N 37°48' W 122°18'0 0.7
2017-May-27 02:29N 37°48' W 122°17'0 0.0
2017-May-27 01:56N 37°48' W 122°17'0 0.0
2017-May-27 01:29N 37°48' W 122°17'0 0.0
2017-May-27 00:59N 37°48' W 122°17'0 0.0
2017-May-27 00:26N 37°48' W 122°17'0 0.0
2017-May-26 23:59N 37°48' W 122°17'0 0.0
2017-May-26 23:29N 37°48' W 122°17'0 0.0
2017-May-26 22:59N 37°48' W 122°17'0 0.0
2017-May-26 22:29N 37°48' W 122°17'0 0.0
2017-May-26 21:59N 37°48' W 122°17'0 0.0
2017-May-26 21:23N 37°48' W 122°17'0 0.0
2017-May-26 20:59N 37°48' W 122°17'0 0.0
2017-May-26 20:29N 37°48' W 122°17'0 0.0
2017-May-26 19:59N 37°48' W 122°17'0 0.0
2017-May-26 19:29N 37°48' W 122°17'0 0.0
2017-May-26 18:59N 37°48' W 122°17'0 0.0
2017-May-26 18:29N 37°48' W 122°17'0 0.0
2017-May-26 17:59N 37°48' W 122°17'0 0.0
2017-May-26 17:29N 37°48' W 122°17'0 0.0
2017-May-26 16:59N 37°48' W 122°17'0 0.0
2017-May-26 16:29N 37°48' W 122°17'0 0.0
2017-May-26 15:59N 37°48' W 122°17'0 0.0
2017-May-26 15:26N 37°48' W 122°17'0 0.0
2017-May-26 14:59N 37°48' W 122°17'0 0.0
2017-May-26 14:29N 37°48' W 122°17'0 0.0
2017-May-26 13:29N 37°48' W 122°17'0 0.0
2017-May-26 12:59N 37°48' W 122°17'0 0.0
2017-May-26 12:29N 37°48' W 122°17'0 0.0
2017-May-26 11:59N 37°48' W 122°17'0 0.0
2017-May-26 11:29N 37°48' W 122°17'0 0.0
2017-May-26 10:59N 37°48' W 122°17'0 0.0
2017-May-26 10:29N 37°48' W 122°17'0 0.0
2017-May-26 09:59N 37°48' W 122°17'0 0.0
2017-May-26 09:29N 37°48' W 122°17'0 0.0
2017-May-26 08:59N 37°48' W 122°17'0 0.0
2017-May-26 08:29N 37°48' W 122°17'0 0.0
2017-May-26 07:59N 37°48' W 122°17'0 0.0
2017-May-26 07:29N 37°48' W 122°17'0 0.0
2017-May-26 06:56N 37°48' W 122°17'0 0.0
2017-May-26 06:29N 37°48' W 122°17'0 0.0
2017-May-26 05:59N 37°48' W 122°17'0 0.0
2017-May-26 05:29N 37°48' W 122°17'0 0.0
2017-May-26 04:59N 37°48' W 122°17'0 0.0
2017-May-26 04:29N 37°48' W 122°17'0 0.0
2017-May-26 03:59N 37°48' W 122°17'0 0.0
2017-May-26 03:29N 37°48' W 122°17'0 0.0
2017-May-26 02:59N 37°48' W 122°17'0 0.0
2017-May-26 02:29N 37°48' W 122°17'0 0.0
2017-May-26 01:58N 37°48' W 122°17'0 0.0
2017-May-26 01:29N 37°48' W 122°17'0 0.0
2017-May-26 01:00N 37°48' W 122°17'2 3.8
2017-May-26 00:31N 37°48' W 122°19'2 4.5
2017-May-26 00:01N 37°46' W 122°22'0 0.0
2017-May-25 23:28N 37°46' W 122°22'0 0.0
2017-May-25 23:00N 37°46' W 122°22'0 0.0
2017-May-25 22:28N 37°46' W 122°22'0 0.1
2017-May-25 21:58N 37°46' W 122°22'0 0.1
2017-May-25 21:28N 37°46' W 122°22'0 0.1
2017-May-25 20:58N 37°46' W 122°22'0 0.2
2017-May-25 20:28N 37°46' W 122°22'0 0.2
2017-May-25 19:58N 37°46' W 122°22'0 0.1
2017-May-25 19:28N 37°46' W 122°22'0 0.2
2017-May-25 18:58N 37°46' W 122°22'0 0.1
2017-May-25 18:25N 37°46' W 122°22'0 0.0
2017-May-25 18:01N 37°46' W 122°22'0 0.3
2017-May-25 17:30N 37°46' W 122°22'1 1.7
2017-May-25 17:01N 37°47' W 122°21'3 6.2
2017-May-25 16:31N 37°48' W 122°17'0 0.2
2017-May-25 15:59N 37°48' W 122°17'0 0.0
2017-May-25 15:26N 37°48' W 122°17'0 0.0
2017-May-25 14:59N 37°48' W 122°17'0 0.0
2017-May-25 13:59N 37°48' W 122°17'0 0.0
2017-May-25 13:29N 37°48' W 122°17'0 0.0
2017-May-25 12:59N 37°48' W 122°17'0 0.0
2017-May-25 12:29N 37°48' W 122°17'0 0.0
2017-May-25 11:59N 37°48' W 122°17'0 0.0
2017-May-25 11:29N 37°48' W 122°17'0 0.0
2017-May-25 10:59N 37°48' W 122°17'0 0.0
2017-May-25 10:29N 37°48' W 122°17'0 0.0
2017-May-25 09:59N 37°48' W 122°17'0 0.0
2017-May-25 09:29N 37°48' W 122°17'0 0.0
2017-May-25 08:59N 37°48' W 122°17'0 0.0
2017-May-25 08:29N 37°48' W 122°17'0 0.0
2017-May-25 07:59N 37°48' W 122°17'0 0.0
2017-May-25 07:29N 37°48' W 122°17'0 0.0
2017-May-25 06:59N 37°48' W 122°17'0 0.0
2017-May-25 06:29N 37°48' W 122°17'0 0.0
2017-May-25 05:59N 37°48' W 122°17'0 0.0
2017-May-25 05:29N 37°48' W 122°17'0 0.0
2017-May-25 04:56N 37°48' W 122°17'0 0.0
2017-May-25 04:26N 37°48' W 122°17'0 0.0
2017-May-25 04:00N 37°48' W 122°17'3 5.4
2017-May-25 03:30N 37°48' W 122°20'3 6.2
2017-May-25 03:00N 37°45' W 122°20'0 0.0
2017-May-25 02:28N 37°45' W 122°20'0 0.1
2017-May-25 01:58N 37°45' W 122°20'0 0.1
2017-May-25 01:28N 37°45' W 122°20'0 0.1
2017-May-25 00:58N 37°45' W 122°20'0 0.1
2017-May-25 00:28N 37°45' W 122°20'0 0.0
2017-May-24 23:58N 37°45' W 122°20'0 0.0
2017-May-24 23:25N 37°45' W 122°20'0 0.1
2017-May-24 22:58N 37°45' W 122°20'0 0.1
2017-May-24 22:25N 37°45' W 122°20'0 0.1
2017-May-24 21:58N 37°45' W 122°20'0 0.1
2017-May-24 21:25N 37°45' W 122°20'0 0.1
2017-May-24 20:58N 37°45' W 122°20'0 0.0
2017-May-24 20:28N 37°45' W 122°20'0 0.2
2017-May-24 19:58N 37°45' W 122°20'0 0.2
2017-May-24 19:30N 37°45' W 122°20'0 0.5
2017-May-24 19:00N 37°45' W 122°20'3 5.8
2017-May-24 18:30N 37°48' W 122°19'2 2.7
2017-May-24 17:55N 37°48' W 122°17'0 0.0
2017-May-24 17:28N 37°48' W 122°17'0 0.0
2017-May-24 16:58N 37°48' W 122°17'0 0.0
2017-May-24 16:28N 37°48' W 122°17'0 0.0
2017-May-24 15:58N 37°48' W 122°17'0 0.0
2017-May-24 15:28N 37°48' W 122°17'0 0.0
2017-May-24 14:58N 37°48' W 122°17'0 0.0
2017-May-24 13:58N 37°48' W 122°17'0 0.0
2017-May-24 13:28N 37°48' W 122°17'0 0.0
2017-May-24 12:58N 37°48' W 122°17'0 0.0
2017-May-24 12:28N 37°48' W 122°17'0 0.0
2017-May-24 11:58N 37°48' W 122°17'0 0.0
2017-May-24 11:28N 37°48' W 122°17'0 0.0
2017-May-24 10:55N 37°48' W 122°17'0 0.0
2017-May-24 10:25N 37°48' W 122°17'0 0.0
2017-May-24 09:58N 37°48' W 122°17'0 0.0
2017-May-24 09:31N 37°48' W 122°17'0 0.0
2017-May-24 09:00N 37°48' W 122°17'0 0.0
2017-May-24 08:28N 37°48' W 122°17'0 0.0
2017-May-24 07:57N 37°48' W 122°17'0 0.0
2017-May-24 07:30N 37°48' W 122°17'0 0.0
2017-May-24 07:00N 37°48' W 122°17'0 0.0
2017-May-24 06:30N 37°48' W 122°17'0 0.0
2017-May-24 06:00N 37°48' W 122°17'0 0.0
2017-May-24 05:30N 37°48' W 122°17'0 0.0
2017-May-24 05:00N 37°48' W 122°17'0 0.0
2017-May-24 04:30N 37°48' W 122°17'0 0.0
2017-May-24 03:57N 37°48' W 122°17'0 0.0
2017-May-24 03:30N 37°48' W 122°17'0 0.0
2017-May-24 03:00N 37°48' W 122°17'0 0.0
2017-May-24 02:30N 37°48' W 122°17'0 0.0
2017-May-24 02:00N 37°48' W 122°17'0 0.0
2017-May-24 01:30N 37°48' W 122°17'0 0.0
2017-May-24 01:00N 37°48' W 122°17'0 0.0
2017-May-24 00:30N 37°48' W 122°17'0 0.0
2017-May-24 00:00N 37°48' W 122°17'0 0.0
2017-May-23 23:30N 37°48' W 122°17'0 0.0
2017-May-23 23:00N 37°48' W 122°17'0 0.0
2017-May-23 22:30N 37°48' W 122°17'0 0.0
2017-May-23 22:00N 37°48' W 122°17'0 0.0
2017-May-23 21:30N 37°48' W 122°17'0 0.0
2017-May-23 21:00N 37°48' W 122°17'1 1.9
2017-May-23 20:31N 37°48' W 122°18'4 7.0
2017-May-23 20:00N 37°50' W 122°22'4 8.3
2017-May-23 19:30N 37°53' W 122°24'2 4.1
2017-May-23 18:57N 37°55' W 122°22'0 0.0
2017-May-23 18:24N 37°55' W 122°22'0 0.0
2017-May-23 17:57N 37°55' W 122°22'0 0.0
2017-May-23 17:21N 37°55' W 122°22'0 0.6
2017-May-23 17:00N 37°55' W 122°22'3 5.6
2017-May-23 16:30N 37°52' W 122°24'4 7.9
2017-May-23 16:00N 37°49' W 122°21'3 6.8
2017-May-23 15:30N 37°48' W 122°17'0 0.5
2017-May-23 14:59N 37°48' W 122°17'0 0.0
2017-May-23 14:29N 37°48' W 122°17'0 0.0
2017-May-23 13:29N 37°48' W 122°17'0 0.0
2017-May-23 12:59N 37°48' W 122°17'0 0.0
2017-May-23 12:26N 37°48' W 122°17'0 0.0
2017-May-23 11:59N 37°48' W 122°17'0 0.0
2017-May-23 11:25N 37°48' W 122°17'0 0.0
2017-May-23 10:58N 37°48' W 122°17'0 0.0
2017-May-23 10:29N 37°48' W 122°17'0 0.0
2017-May-23 09:58N 37°48' W 122°17'0 0.0
2017-May-23 09:28N 37°48' W 122°17'0 0.0
2017-May-23 08:58N 37°48' W 122°17'0 0.0
2017-May-23 08:25N 37°48' W 122°17'0 0.0
2017-May-23 07:58N 37°48' W 122°17'0 0.0
2017-May-23 07:28N 37°48' W 122°17'0 0.0
2017-May-23 06:58N 37°48' W 122°17'0 0.0
2017-May-23 06:28N 37°48' W 122°17'0 0.0
2017-May-23 05:58N 37°48' W 122°17'0 0.0
2017-May-23 05:28N 37°48' W 122°17'0 0.0
2017-May-23 04:58N 37°48' W 122°17'0 0.0
2017-May-23 04:28N 37°48' W 122°17'0 0.0
2017-May-23 03:58N 37°48' W 122°17'0 0.0
2017-May-23 03:28N 37°48' W 122°17'0 0.0
2017-May-23 02:58N 37°48' W 122°17'0 0.0
2017-May-23 02:28N 37°48' W 122°17'0 0.0
2017-May-23 01:55N 37°48' W 122°17'0 0.0
2017-May-23 01:28N 37°48' W 122°17'0 0.0
2017-May-23 00:55N 37°48' W 122°17'0 0.0
2017-May-23 00:28N 37°48' W 122°17'0 0.0
2017-May-22 23:58N 37°48' W 122°17'0 0.0
2017-May-22 23:28N 37°48' W 122°17'0 0.0
2017-May-22 22:58N 37°48' W 122°17'0 0.0
2017-May-22 22:28N 37°48' W 122°17'0 0.0
2017-May-22 21:58N 37°48' W 122°17'0 0.0
2017-May-22 21:25N 37°48' W 122°17'0 0.0
2017-May-22 20:55N 37°48' W 122°17'0 0.0
2017-May-22 20:28N 37°48' W 122°17'0 0.0
2017-May-22 19:58N 37°48' W 122°17'0 0.0
2017-May-22 19:28N 37°48' W 122°17'0 0.0
2017-May-22 18:58N 37°48' W 122°17'0 0.0
2017-May-22 18:28N 37°48' W 122°17'0 0.0
2017-May-22 17:58N 37°48' W 122°17'0 0.0
2017-May-22 17:28N 37°48' W 122°17'0 0.0
2017-May-22 16:58N 37°48' W 122°17'0 0.0
2017-May-22 16:28N 37°48' W 122°17'0 0.0
2017-May-22 15:58N 37°48' W 122°17'0 0.0
2017-May-22 15:25N 37°48' W 122°17'0 0.0
2017-May-22 14:58N 37°48' W 122°17'0 0.0
2017-May-22 13:58N 37°48' W 122°17'0 0.0
2017-May-22 13:28N 37°48' W 122°17'0 0.0
2017-May-22 12:58N 37°48' W 122°17'0 0.0
2017-May-22 12:28N 37°48' W 122°17'0 0.0
2017-May-22 11:58N 37°48' W 122°17'0 0.0
2017-May-22 11:28N 37°48' W 122°17'0 0.0
2017-May-22 10:55N 37°48' W 122°17'0 0.0
2017-May-22 10:28N 37°48' W 122°17'0 0.0
2017-May-22 09:55N 37°48' W 122°17'0 0.0
2017-May-22 09:28N 37°48' W 122°17'0 0.0
2017-May-22 08:58N 37°48' W 122°17'0 0.0
2017-May-22 08:25N 37°48' W 122°17'0 0.0
2017-May-22 07:55N 37°48' W 122°17'0 0.0
2017-May-22 07:28N 37°48' W 122°17'0 0.0
2017-May-22 06:58N 37°48' W 122°17'0 0.0
2017-May-22 06:28N 37°48' W 122°17'0 0.0
2017-May-22 05:58N 37°48' W 122°17'0 0.0
2017-May-22 05:28N 37°48' W 122°17'0 0.0
2017-May-22 04:58N 37°48' W 122°17'0 0.0
2017-May-22 04:28N 37°48' W 122°17'0 0.0
2017-May-22 04:01N 37°48' W 122°17'0 0.0
2017-May-22 03:31N 37°48' W 122°17'0 0.0
2017-May-22 03:01N 37°48' W 122°17'0 0.0
2017-May-22 02:30N 37°48' W 122°17'0 0.0
2017-May-22 02:00N 37°48' W 122°17'0 0.0
2017-May-22 01:30N 37°48' W 122°17'0 0.0
2017-May-22 01:00N 37°48' W 122°17'0 0.0
2017-May-22 00:30N 37°48' W 122°17'0 0.0
2017-May-21 23:57N 37°48' W 122°17'0 0.0
2017-May-21 23:30N 37°48' W 122°17'0 0.1
2017-May-21 23:00N 37°48' W 122°17'3 6.5
2017-May-21 22:31N 37°47' W 122°21'1 2.5
2017-May-21 22:01N 37°46' W 122°22'0 0.1
2017-May-21 21:25N 37°46' W 122°22'0 0.1
2017-May-21 20:55N 37°46' W 122°22'0 0.0
2017-May-21 20:28N 37°46' W 122°22'0 0.1
2017-May-21 19:58N 37°46' W 122°22'0 0.0
2017-May-21 19:30N 37°46' W 122°22'3 6.0
2017-May-21 19:00N 37°49' W 122°23'3 7.0
2017-May-21 18:30N 37°52' W 122°24'3 5.1
2017-May-21 18:00N 37°54' W 122°22'1 1.5
2017-May-21 17:30N 37°55' W 122°22'0 0.0
2017-May-21 16:59N 37°55' W 122°22'0 0.0
2017-May-21 16:29N 37°55' W 122°22'0 0.0
2017-May-21 15:56N 37°55' W 122°22'0 0.0
2017-May-21 15:29N 37°55' W 122°22'0 0.0
2017-May-21 14:58N 37°55' W 122°22'0 0.0
2017-May-21 14:28N 37°55' W 122°22'0 0.0
2017-May-21 13:25N 37°55' W 122°22'0 0.0
2017-May-21 12:58N 37°55' W 122°22'0 0.0
2017-May-21 12:28N 37°55' W 122°22'0 0.0
2017-May-21 11:52N 37°55' W 122°22'0 0.0
2017-May-21 11:28N 37°55' W 122°22'0 0.0
2017-May-21 10:58N 37°55' W 122°22'0 0.0
2017-May-21 10:25N 37°55' W 122°22'0 0.0
2017-May-21 09:55N 37°55' W 122°22'0 0.0
2017-May-21 09:28N 37°55' W 122°22'0 0.0
2017-May-21 08:58N 37°55' W 122°22'0 0.0
2017-May-21 08:28N 37°55' W 122°22'0 0.0
2017-May-21 07:58N 37°55' W 122°22'0 0.0
2017-May-21 07:28N 37°55' W 122°22'0 0.0
2017-May-21 06:55N 37°55' W 122°22'0 0.0
2017-May-21 06:28N 37°55' W 122°22'0 0.0
2017-May-21 05:58N 37°55' W 122°22'0 0.0
2017-May-21 05:22N 37°55' W 122°22'0 0.0
2017-May-21 04:58N 37°55' W 122°22'0 0.0
2017-May-21 04:28N 37°55' W 122°22'0 0.0
2017-May-21 03:58N 37°55' W 122°22'0 0.0
2017-May-21 03:28N 37°55' W 122°22'0 0.0
2017-May-21 02:55N 37°55' W 122°22'0 0.0
2017-May-21 02:28N 37°55' W 122°22'0 0.0
2017-May-21 01:58N 37°55' W 122°22'0 0.0
2017-May-21 01:25N 37°55' W 122°22'0 0.0
2017-May-21 00:58N 37°55' W 122°22'0 0.0
2017-May-21 00:28N 37°55' W 122°22'0 0.0
2017-May-20 23:58N 37°55' W 122°22'0 0.0
2017-May-20 23:25N 37°55' W 122°22'0 0.0
2017-May-20 22:58N 37°55' W 122°22'0 0.0
2017-May-20 22:28N 37°55' W 122°22'0 0.0
2017-May-20 21:58N 37°55' W 122°22'0 0.0
2017-May-20 21:28N 37°55' W 122°22'0 0.0
2017-May-20 20:58N 37°55' W 122°22'0 0.0
2017-May-20 20:30N 37°55' W 122°22'2 5.0
2017-May-20 20:00N 37°55' W 122°25'510.1
2017-May-20 19:29N 38°00' W 122°24'510.6
2017-May-20 19:00N 38°03' W 122°19'610.2
2017-May-20 18:23N 38°03' W 122°11'2 5.8
2017-May-20 18:00N 38°03' W 122°08'0 0.0
2017-May-20 17:29N 38°03' W 122°08'0 0.0
2017-May-20 03:00N 38°02' W 122°08'4 8.9
2017-May-20 02:30N 38°04' W 122°13'5 8.8
2017-May-20 01:58N 38°03' W 122°19'510.1
2017-May-20 01:30N 38°00' W 122°24'510.1
2017-May-20 01:00N 37°55' W 122°26'5 9.4
2017-May-20 00:31N 37°51' W 122°23'4 7.8
2017-May-20 00:00N 37°47' W 122°22'2 2.9
2017-May-19 23:25N 37°46' W 122°20'0 0.0
2017-May-19 22:58N 37°46' W 122°20'0 0.0
2017-May-19 22:25N 37°46' W 122°20'0 0.0
2017-May-19 21:55N 37°46' W 122°20'0 0.3
2017-May-19 21:28N 37°46' W 122°20'0 0.4
2017-May-19 20:58N 37°46' W 122°20'0 0.1
2017-May-19 20:28N 37°46' W 122°21'0 0.0
2017-May-19 20:00N 37°46' W 122°21'1 2.8
2017-May-19 19:30N 37°48' W 122°21'3 5.7
2017-May-19 19:00N 37°48' W 122°17'0 0.0
2017-May-19 18:25N 37°48' W 122°17'0 0.0
2017-May-19 17:58N 37°48' W 122°17'0 0.0
2017-May-19 17:28N 37°48' W 122°17'0 0.0
2017-May-19 16:55N 37°48' W 122°17'0 0.0
2017-May-19 16:28N 37°48' W 122°17'0 0.3
2017-May-19 16:00N 37°48' W 122°17'3 6.6
2017-May-19 15:30N 37°46' W 122°21'1 1.4
2017-May-19 14:59N 37°46' W 122°22'0 0.3
2017-May-19 13:59N 37°46' W 122°21'0 0.1
2017-May-19 13:29N 37°46' W 122°21'0 0.0
2017-May-19 12:59N 37°46' W 122°21'0 0.1
2017-May-19 12:29N 37°46' W 122°21'0 0.1
2017-May-19 11:59N 37°46' W 122°21'0 0.0
2017-May-19 11:29N 37°46' W 122°21'0 0.0
2017-May-19 10:59N 37°46' W 122°21'0 0.0
2017-May-19 10:29N 37°46' W 122°21'0 0.1
2017-May-19 09:59N 37°46' W 122°21'0 0.2
2017-May-19 09:29N 37°46' W 122°21'0 0.1
2017-May-19 08:59N 37°46' W 122°21'0 0.1
2017-May-19 08:29N 37°46' W 122°21'0 0.0
2017-May-19 07:56N 37°46' W 122°21'0 0.0
2017-May-19 07:29N 37°46' W 122°21'0 0.0
2017-May-19 07:00N 37°46' W 122°21'2 3.5
2017-May-19 06:30N 37°47' W 122°22'3 6.9
2017-May-19 06:00N 37°51' W 122°24'4 7.3
2017-May-19 05:30N 37°54' W 122°24'2 4.0
2017-May-19 04:59N 37°55' W 122°22'0 0.0
2017-May-19 04:29N 37°55' W 122°22'0 0.0
2017-May-19 03:41N 37°55' W 122°22'0 0.0
2017-May-19 03:29N 37°55' W 122°22'0 0.0
2017-May-19 02:50N 37°55' W 122°22'0 0.0
2017-May-19 02:26N 37°55' W 122°22'0 0.0
2017-May-19 01:59N 37°55' W 122°22'0 0.0
2017-May-19 01:29N 37°55' W 122°22'0 0.0
2017-May-19 00:59N 37°55' W 122°22'0 0.0
2017-May-19 00:24N 37°55' W 122°22'0 0.0
2017-May-18 23:54N 37°55' W 122°22'0 0.0
2017-May-18 23:30N 37°55' W 122°22'0 0.0
2017-May-18 23:00N 37°55' W 122°22'1 2.3
2017-May-18 22:30N 37°54' W 122°23'3 6.6
2017-May-18 22:00N 37°51' W 122°24'3 5.6
2017-May-18 21:30N 37°48' W 122°24'0 0.0
2017-May-18 21:00N 37°48' W 122°24'0 0.1
2017-May-18 20:26N 37°48' W 122°24'0 0.1
2017-May-18 20:00N 37°48' W 122°24'0 0.0
2017-May-18 19:30N 37°48' W 122°24'0 0.0
2017-May-18 18:59N 37°48' W 122°24'0 0.0
2017-May-18 18:29N 37°48' W 122°24'0 0.1
2017-May-18 17:53N 37°48' W 122°24'0 0.1
2017-May-18 17:29N 37°48' W 122°24'0 0.1
2017-May-18 16:53N 37°48' W 122°24'0 0.0
2017-May-18 16:29N 37°48' W 122°24'0 0.1
2017-May-18 15:59N 37°48' W 122°24'0 0.0
2017-May-18 15:29N 37°48' W 122°24'0 0.1
2017-May-18 14:59N 37°48' W 122°24'0 0.4
2017-May-18 14:00N 37°49' W 122°24'0 0.7
2017-May-18 13:30N 37°49' W 122°24'1 2.1
2017-May-18 13:00N 37°50' W 122°25'3 5.3
2017-May-18 12:31N 37°53' W 122°24'2 4.8
2017-May-18 12:00N 37°54' W 122°22'1 1.2
2017-May-18 11:21N 37°55' W 122°22'0 0.0
2017-May-18 11:00N 37°55' W 122°22'0 0.0
2017-May-18 10:30N 37°55' W 122°22'0 0.0
2017-May-18 09:57N 37°55' W 122°22'0 0.0
2017-May-18 09:24N 37°55' W 122°22'0 0.0
2017-May-18 09:00N 37°55' W 122°22'0 0.0
2017-May-18 08:30N 37°55' W 122°22'0 0.0
2017-May-18 07:54N 37°55' W 122°22'0 0.0
2017-May-18 07:27N 37°55' W 122°22'0 0.0
2017-May-18 06:45N 37°55' W 122°22'0 0.0
2017-May-18 06:15N 37°55' W 122°22'0 0.0
2017-May-18 05:57N 37°55' W 122°22'0 0.0
2017-May-18 05:27N 37°55' W 122°22'0 0.0
2017-May-18 05:00N 37°55' W 122°22'0 0.0
2017-May-18 04:27N 37°55' W 122°22'0 0.0
2017-May-18 04:00N 37°55' W 122°22'0 0.0
2017-May-18 03:30N 37°55' W 122°22'0 0.0
2017-May-18 02:57N 37°55' W 122°22'0 0.0
2017-May-18 02:18N 37°55' W 122°22'0 0.0
2017-May-18 02:00N 37°55' W 122°22'0 0.0
2017-May-18 01:30N 37°55' W 122°22'0 0.0
2017-May-18 00:57N 37°55' W 122°22'0 0.0
2017-May-18 00:30N 37°55' W 122°22'0 0.0
2017-May-18 00:00N 37°55' W 122°22'0 0.0
2017-May-17 23:27N 37°55' W 122°22'0 0.7
2017-May-17 23:00N 37°55' W 122°22'3 5.8
2017-May-17 22:30N 37°52' W 122°24'4 8.0
2017-May-17 22:00N 37°49' W 122°21'2 3.8
2017-May-17 21:30N 37°48' W 122°19'0 0.0
2017-May-17 21:00N 37°48' W 122°19'0 0.0
2017-May-17 20:29N 37°48' W 122°19'0 0.0
2017-May-17 19:59N 37°48' W 122°19'0 0.0
2017-May-17 19:29N 37°48' W 122°19'0 0.0
2017-May-17 18:59N 37°48' W 122°19'0 0.0
2017-May-17 18:29N 37°48' W 122°19'0 0.0
2017-May-17 17:58N 37°48' W 122°19'0 0.0
2017-May-17 17:28N 37°48' W 122°19'0 0.0
2017-May-17 16:58N 37°48' W 122°19'0 0.0
2017-May-17 16:28N 37°48' W 122°19'0 0.0
2017-May-17 15:58N 37°48' W 122°19'0 0.0
2017-May-17 15:28N 37°48' W 122°19'0 0.0
2017-May-17 14:58N 37°48' W 122°19'0 0.0
2017-May-17 14:31N 37°48' W 122°19'2 1.6
2017-May-17 13:31N 37°47' W 122°21'1 1.4
2017-May-17 13:00N 37°46' W 122°20'0 0.1
2017-May-17 12:30N 37°46' W 122°20'0 0.2
2017-May-17 12:00N 37°46' W 122°20'0 0.2
2017-May-17 11:30N 37°46' W 122°20'0 0.1
2017-May-17 11:00N 37°46' W 122°20'0 0.1
2017-May-17 10:30N 37°46' W 122°20'0 0.0
2017-May-17 10:00N 37°46' W 122°20'0 0.0
2017-May-17 09:30N 37°46' W 122°20'0 0.0
2017-May-17 09:00N 37°46' W 122°20'0 0.1
2017-May-17 08:30N 37°46' W 122°20'0 0.0
2017-May-17 07:59N 37°46' W 122°20'0 0.0
2017-May-17 07:30N 37°46' W 122°20'0 0.1
2017-May-17 06:59N 37°46' W 122°20'0 0.1
2017-May-17 06:29N 37°46' W 122°20'0 0.7
2017-May-17 06:00N 37°46' W 122°20'  
Track history (hours):
 
Tides and Currents Weather Stations Pressure Air Temp Water Temp Dewpoint Dewpoint Depression Visibility Wind Speed Wind Dir Waves Ship Positions

Royal Melbourne

Owner: Harley Marine Services, Inc, Seattle, WA. More information available from US FCC via Universal Licensing System and Coast Guard Vessel Documentation Center.

Last reported at 2017-May-27 06:00 UTC. Time now 2017-May-27 06:03 UTC.
Position N 37°55' W 122°22'.

Length 30 m; draft 2 m.

Type: Tug. MMSI: 366998830.

Date/timePositionNaut miles runAvg speedWind from/ knotsBaromVisibWave heightAir tempDewpointWater temp
2017-May-27 06:00N 37°55' W 122°22'0 0.0
2017-May-27 05:30N 37°55' W 122°22'0 0.0
2017-May-27 05:00N 37°55' W 122°22'0 0.3
2017-May-27 04:30N 37°55' W 122°22'3 5.1
2017-May-27 04:00N 37°53' W 122°24'4 7.9
2017-May-27 03:30N 37°49' W 122°22'4 7.4
2017-May-27 03:00N 37°48' W 122°18'0 0.7
2017-May-27 02:29N 37°48' W 122°17'0 0.0
2017-May-27 01:56N 37°48' W 122°17'0 0.0
2017-May-27 01:29N 37°48' W 122°17'0 0.0
2017-May-27 00:59N 37°48' W 122°17'0 0.0
2017-May-27 00:26N 37°48' W 122°17'0 0.0
2017-May-26 23:59N 37°48' W 122°17'0 0.0
2017-May-26 23:29N 37°48' W 122°17'0 0.0
2017-May-26 22:59N 37°48' W 122°17'0 0.0
2017-May-26 22:29N 37°48' W 122°17'0 0.0
2017-May-26 21:59N 37°48' W 122°17'0 0.0
2017-May-26 21:23N 37°48' W 122°17'0 0.0
2017-May-26 20:59N 37°48' W 122°17'0 0.0
2017-May-26 20:29N 37°48' W 122°17'0 0.0
2017-May-26 19:59N 37°48' W 122°17'0 0.0
2017-May-26 19:29N 37°48' W 122°17'0 0.0
2017-May-26 18:59N 37°48' W 122°17'0 0.0
2017-May-26 18:29N 37°48' W 122°17'0 0.0
2017-May-26 17:59N 37°48' W 122°17'0 0.0
2017-May-26 17:29N 37°48' W 122°17'0 0.0
2017-May-26 16:59N 37°48' W 122°17'0 0.0
2017-May-26 16:29N 37°48' W 122°17'0 0.0
2017-May-26 15:59N 37°48' W 122°17'0 0.0
2017-May-26 15:26N 37°48' W 122°17'0 0.0
2017-May-26 14:59N 37°48' W 122°17'0 0.0
2017-May-26 14:29N 37°48' W 122°17'0 0.0
2017-May-26 13:29N 37°48' W 122°17'0 0.0
2017-May-26 12:59N 37°48' W 122°17'0 0.0
2017-May-26 12:29N 37°48' W 122°17'0 0.0
2017-May-26 11:59N 37°48' W 122°17'0 0.0
2017-May-26 11:29N 37°48' W 122°17'0 0.0
2017-May-26 10:59N 37°48' W 122°17'0 0.0
2017-May-26 10:29N 37°48' W 122°17'0 0.0
2017-May-26 09:59N 37°48' W 122°17'0 0.0
2017-May-26 09:29N 37°48' W 122°17'0 0.0
2017-May-26 08:59N 37°48' W 122°17'0 0.0
2017-May-26 08:29N 37°48' W 122°17'0 0.0
2017-May-26 07:59N 37°48' W 122°17'0 0.0
2017-May-26 07:29N 37°48' W 122°17'0 0.0
2017-May-26 06:56N 37°48' W 122°17'0 0.0
2017-May-26 06:29N 37°48' W 122°17'0 0.0
2017-May-26 05:59N 37°48' W 122°17'0 0.0
2017-May-26 05:29N 37°48' W 122°17'0 0.0
2017-May-26 04:59N 37°48' W 122°17'0 0.0
2017-May-26 04:29N 37°48' W 122°17'0 0.0
2017-May-26 03:59N 37°48' W 122°17'0 0.0
2017-May-26 03:29N 37°48' W 122°17'0 0.0
2017-May-26 02:59N 37°48' W 122°17'0 0.0
2017-May-26 02:29N 37°48' W 122°17'0 0.0
2017-May-26 01:58N 37°48' W 122°17'0 0.0
2017-May-26 01:29N 37°48' W 122°17'0 0.0
2017-May-26 01:00N 37°48' W 122°17'2 3.8
2017-May-26 00:31N 37°48' W 122°19'2 4.5
2017-May-26 00:01N 37°46' W 122°22'0 0.0
2017-May-25 23:28N 37°46' W 122°22'0 0.0
2017-May-25 23:00N 37°46' W 122°22'0 0.0
2017-May-25 22:28N 37°46' W 122°22'0 0.1
2017-May-25 21:58N 37°46' W 122°22'0 0.1
2017-May-25 21:28N 37°46' W 122°22'0 0.1
2017-May-25 20:58N 37°46' W 122°22'0 0.2
2017-May-25 20:28N 37°46' W 122°22'0 0.2
2017-May-25 19:58N 37°46' W 122°22'0 0.1
2017-May-25 19:28N 37°46' W 122°22'0 0.2
2017-May-25 18:58N 37°46' W 122°22'0 0.1
2017-May-25 18:25N 37°46' W 122°22'0 0.0
2017-May-25 18:01N 37°46' W 122°22'0 0.3
2017-May-25 17:30N 37°46' W 122°22'1 1.7
2017-May-25 17:01N 37°47' W 122°21'3 6.2
2017-May-25 16:31N 37°48' W 122°17'0 0.2
2017-May-25 15:59N 37°48' W 122°17'0 0.0
2017-May-25 15:26N 37°48' W 122°17'0 0.0
2017-May-25 14:59N 37°48' W 122°17'0 0.0
2017-May-25 13:59N 37°48' W 122°17'0 0.0
2017-May-25 13:29N 37°48' W 122°17'0 0.0
2017-May-25 12:59N 37°48' W 122°17'0 0.0
2017-May-25 12:29N 37°48' W 122°17'0 0.0
2017-May-25 11:59N 37°48' W 122°17'0 0.0
2017-May-25 11:29N 37°48' W 122°17'0 0.0
2017-May-25 10:59N 37°48' W 122°17'0 0.0
2017-May-25 10:29N 37°48' W 122°17'0 0.0
2017-May-25 09:59N 37°48' W 122°17'0 0.0
2017-May-25 09:29N 37°48' W 122°17'0 0.0
2017-May-25 08:59N 37°48' W 122°17'0 0.0
2017-May-25 08:29N 37°48' W 122°17'0 0.0
2017-May-25 07:59N 37°48' W 122°17'0 0.0
2017-May-25 07:29N 37°48' W 122°17'0 0.0
2017-May-25 06:59N 37°48' W 122°17'0 0.0
2017-May-25 06:29N 37°48' W 122°17'0 0.0
2017-May-25 05:59N 37°48' W 122°17'0 0.0
2017-May-25 05:29N 37°48' W 122°17'0 0.0
2017-May-25 04:56N 37°48' W 122°17'0 0.0
2017-May-25 04:26N 37°48' W 122°17'0 0.0
2017-May-25 04:00N 37°48' W 122°17'3 5.4
2017-May-25 03:30N 37°48' W 122°20'3 6.2
2017-May-25 03:00N 37°45' W 122°20'0 0.0
2017-May-25 02:28N 37°45' W 122°20'0 0.1
2017-May-25 01:58N 37°45' W 122°20'0 0.1
2017-May-25 01:28N 37°45' W 122°20'0 0.1
2017-May-25 00:58N 37°45' W 122°20'0 0.1
2017-May-25 00:28N 37°45' W 122°20'0 0.0
2017-May-24 23:58N 37°45' W 122°20'0 0.0
2017-May-24 23:25N 37°45' W 122°20'0 0.1
2017-May-24 22:58N 37°45' W 122°20'0 0.1
2017-May-24 22:25N 37°45' W 122°20'0 0.1
2017-May-24 21:58N 37°45' W 122°20'0 0.1
2017-May-24 21:25N 37°45' W 122°20'0 0.1
2017-May-24 20:58N 37°45' W 122°20'0 0.0
2017-May-24 20:28N 37°45' W 122°20'0 0.2
2017-May-24 19:58N 37°45' W 122°20'0 0.2
2017-May-24 19:30N 37°45' W 122°20'0 0.5
2017-May-24 19:00N 37°45' W 122°20'3 5.8
2017-May-24 18:30N 37°48' W 122°19'2 2.7
2017-May-24 17:55N 37°48' W 122°17'0 0.0
2017-May-24 17:28N 37°48' W 122°17'0 0.0
2017-May-24 16:58N 37°48' W 122°17'0 0.0
2017-May-24 16:28N 37°48' W 122°17'0 0.0
2017-May-24 15:58N 37°48' W 122°17'0 0.0
2017-May-24 15:28N 37°48' W 122°17'0 0.0
2017-May-24 14:58N 37°48' W 122°17'0 0.0
2017-May-24 13:58N 37°48' W 122°17'0 0.0
2017-May-24 13:28N 37°48' W 122°17'0 0.0
2017-May-24 12:58N 37°48' W 122°17'0 0.0
2017-May-24 12:28N 37°48' W 122°17'0 0.0
2017-May-24 11:58N 37°48' W 122°17'0 0.0
2017-May-24 11:28N 37°48' W 122°17'0 0.0
2017-May-24 10:55N 37°48' W 122°17'0 0.0
2017-May-24 10:25N 37°48' W 122°17'0 0.0
2017-May-24 09:58N 37°48' W 122°17'0 0.0
2017-May-24 09:31N 37°48' W 122°17'0 0.0
2017-May-24 09:00N 37°48' W 122°17'0 0.0
2017-May-24 08:28N 37°48' W 122°17'0 0.0
2017-May-24 07:57N 37°48' W 122°17'0 0.0
2017-May-24 07:30N 37°48' W 122°17'0 0.0
2017-May-24 07:00N 37°48' W 122°17'0 0.0
2017-May-24 06:30N 37°48' W 122°17'0 0.0
2017-May-24 06:00N 37°48' W 122°17'0 0.0
2017-May-24 05:30N 37°48' W 122°17'0 0.0
2017-May-24 05:00N 37°48' W 122°17'0 0.0
2017-May-24 04:30N 37°48' W 122°17'0 0.0
2017-May-24 03:57N 37°48' W 122°17'0 0.0
2017-May-24 03:30N 37°48' W 122°17'0 0.0
2017-May-24 03:00N 37°48' W 122°17'0 0.0
2017-May-24 02:30N 37°48' W 122°17'0 0.0
2017-May-24 02:00N 37°48' W 122°17'0 0.0
2017-May-24 01:30N 37°48' W 122°17'0 0.0
2017-May-24 01:00N 37°48' W 122°17'0 0.0
2017-May-24 00:30N 37°48' W 122°17'0 0.0
2017-May-24 00:00N 37°48' W 122°17'0 0.0
2017-May-23 23:30N 37°48' W 122°17'0 0.0
2017-May-23 23:00N 37°48' W 122°17'0 0.0
2017-May-23 22:30N 37°48' W 122°17'0 0.0
2017-May-23 22:00N 37°48' W 122°17'0 0.0
2017-May-23 21:30N 37°48' W 122°17'0 0.0
2017-May-23 21:00N 37°48' W 122°17'1 1.9
2017-May-23 20:31N 37°48' W 122°18'4 7.0
2017-May-23 20:00N 37°50' W 122°22'4 8.3
2017-May-23 19:30N 37°53' W 122°24'2 4.1
2017-May-23 18:57N 37°55' W 122°22'0 0.0
2017-May-23 18:24N 37°55' W 122°22'0 0.0
2017-May-23 17:57N 37°55' W 122°22'0 0.0
2017-May-23 17:21N 37°55' W 122°22'0 0.6
2017-May-23 17:00N 37°55' W 122°22'3 5.6
2017-May-23 16:30N 37°52' W 122°24'4 7.9
2017-May-23 16:00N 37°49' W 122°21'3 6.8
2017-May-23 15:30N 37°48' W 122°17'0 0.5
2017-May-23 14:59N 37°48' W 122°17'0 0.0
2017-May-23 14:29N 37°48' W 122°17'0 0.0
2017-May-23 13:29N 37°48' W 122°17'0 0.0
2017-May-23 12:59N 37°48' W 122°17'0 0.0
2017-May-23 12:26N 37°48' W 122°17'0 0.0
2017-May-23 11:59N 37°48' W 122°17'0 0.0
2017-May-23 11:25N 37°48' W 122°17'0 0.0
2017-May-23 10:58N 37°48' W 122°17'0 0.0
2017-May-23 10:29N 37°48' W 122°17'0 0.0
2017-May-23 09:58N 37°48' W 122°17'0 0.0
2017-May-23 09:28N 37°48' W 122°17'0 0.0
2017-May-23 08:58N 37°48' W 122°17'0 0.0
2017-May-23 08:25N 37°48' W 122°17'0 0.0
2017-May-23 07:58N 37°48' W 122°17'0 0.0
2017-May-23 07:28N 37°48' W 122°17'0 0.0
2017-May-23 06:58N 37°48' W 122°17'0 0.0
2017-May-23 06:28N 37°48' W 122°17'0 0.0
2017-May-23 05:58N 37°48' W 122°17'0 0.0
2017-May-23 05:28N 37°48' W 122°17'0 0.0
2017-May-23 04:58N 37°48' W 122°17'0 0.0
2017-May-23 04:28N 37°48' W 122°17'0 0.0
2017-May-23 03:58N 37°48' W 122°17'0 0.0
2017-May-23 03:28N 37°48' W 122°17'0 0.0
2017-May-23 02:58N 37°48' W 122°17'0 0.0
2017-May-23 02:28N 37°48' W 122°17'0 0.0
2017-May-23 01:55N 37°48' W 122°17'0 0.0
2017-May-23 01:28N 37°48' W 122°17'0 0.0
2017-May-23 00:55N 37°48' W 122°17'0 0.0
2017-May-23 00:28N 37°48' W 122°17'0 0.0
2017-May-22 23:58N 37°48' W 122°17'0 0.0
2017-May-22 23:28N 37°48' W 122°17'0 0.0
2017-May-22 22:58N 37°48' W 122°17'0 0.0
2017-May-22 22:28N 37°48' W 122°17'0 0.0
2017-May-22 21:58N 37°48' W 122°17'0 0.0
2017-May-22 21:25N 37°48' W 122°17'0 0.0
2017-May-22 20:55N 37°48' W 122°17'0 0.0
2017-May-22 20:28N 37°48' W 122°17'0 0.0
2017-May-22 19:58N 37°48' W 122°17'0 0.0
2017-May-22 19:28N 37°48' W 122°17'0 0.0
2017-May-22 18:58N 37°48' W 122°17'0 0.0
2017-May-22 18:28N 37°48' W 122°17'0 0.0
2017-May-22 17:58N 37°48' W 122°17'0 0.0
2017-May-22 17:28N 37°48' W 122°17'0 0.0
2017-May-22 16:58N 37°48' W 122°17'0 0.0
2017-May-22 16:28N 37°48' W 122°17'0 0.0
2017-May-22 15:58N 37°48' W 122°17'0 0.0
2017-May-22 15:25N 37°48' W 122°17'0 0.0
2017-May-22 14:58N 37°48' W 122°17'0 0.0
2017-May-22 13:58N 37°48' W 122°17'0 0.0
2017-May-22 13:28N 37°48' W 122°17'0 0.0
2017-May-22 12:58N 37°48' W 122°17'0 0.0
2017-May-22 12:28N 37°48' W 122°17'0 0.0
2017-May-22 11:58N 37°48' W 122°17'0 0.0
2017-May-22 11:28N 37°48' W 122°17'0 0.0
2017-May-22 10:55N 37°48' W 122°17'0 0.0
2017-May-22 10:28N 37°48' W 122°17'0 0.0
2017-May-22 09:55N 37°48' W 122°17'0 0.0
2017-May-22 09:28N 37°48' W 122°17'0 0.0
2017-May-22 08:58N 37°48' W 122°17'0 0.0
2017-May-22 08:25N 37°48' W 122°17'0 0.0
2017-May-22 07:55N 37°48' W 122°17'0 0.0
2017-May-22 07:28N 37°48' W 122°17'0 0.0
2017-May-22 06:58N 37°48' W 122°17'0 0.0
2017-May-22 06:28N 37°48' W 122°17'0 0.0
2017-May-22 05:58N 37°48' W 122°17'0 0.0
2017-May-22 05:28N 37°48' W 122°17'0 0.0
2017-May-22 04:58N 37°48' W 122°17'0 0.0
2017-May-22 04:28N 37°48' W 122°17'0 0.0
2017-May-22 04:01N 37°48' W 122°17'0 0.0
2017-May-22 03:31N 37°48' W 122°17'0 0.0
2017-May-22 03:01N 37°48' W 122°17'0 0.0
2017-May-22 02:30N 37°48' W 122°17'0 0.0
2017-May-22 02:00N 37°48' W 122°17'0 0.0
2017-May-22 01:30N 37°48' W 122°17'0 0.0
2017-May-22 01:00N 37°48' W 122°17'0 0.0
2017-May-22 00:30N 37°48' W 122°17'0 0.0
2017-May-21 23:57N 37°48' W 122°17'0 0.0
2017-May-21 23:30N 37°48' W 122°17'0 0.1
2017-May-21 23:00N 37°48' W 122°17'3 6.5
2017-May-21 22:31N 37°47' W 122°21'1 2.5
2017-May-21 22:01N 37°46' W 122°22'0 0.1
2017-May-21 21:25N 37°46' W 122°22'0 0.1
2017-May-21 20:55N 37°46' W 122°22'0 0.0
2017-May-21 20:28N 37°46' W 122°22'0 0.1
2017-May-21 19:58N 37°46' W 122°22'0 0.0
2017-May-21 19:30N 37°46' W 122°22'3 6.0
2017-May-21 19:00N 37°49' W 122°23'3 7.0
2017-May-21 18:30N 37°52' W 122°24'3 5.1
2017-May-21 18:00N 37°54' W 122°22'1 1.5
2017-May-21 17:30N 37°55' W 122°22'0 0.0
2017-May-21 16:59N 37°55' W 122°22'0 0.0
2017-May-21 16:29N 37°55' W 122°22'0 0.0
2017-May-21 15:56N 37°55' W 122°22'0 0.0
2017-May-21 15:29N 37°55' W 122°22'0 0.0
2017-May-21 14:58N 37°55' W 122°22'0 0.0
2017-May-21 14:28N 37°55' W 122°22'0 0.0
2017-May-21 13:25N 37°55' W 122°22'0 0.0
2017-May-21 12:58N 37°55' W 122°22'0 0.0
2017-May-21 12:28N 37°55' W 122°22'0 0.0
2017-May-21 11:52N 37°55' W 122°22'0 0.0
2017-May-21 11:28N 37°55' W 122°22'0 0.0
2017-May-21 10:58N 37°55' W 122°22'0 0.0
2017-May-21 10:25N 37°55' W 122°22'0 0.0
2017-May-21 09:55N 37°55' W 122°22'0 0.0
2017-May-21 09:28N 37°55' W 122°22'0 0.0
2017-May-21 08:58N 37°55' W 122°22'0 0.0
2017-May-21 08:28N 37°55' W 122°22'0 0.0
2017-May-21 07:58N 37°55' W 122°22'0 0.0
2017-May-21 07:28N 37°55' W 122°22'0 0.0
2017-May-21 06:55N 37°55' W 122°22'0 0.0
2017-May-21 06:28N 37°55' W 122°22'0 0.0
2017-May-21 05:58N 37°55' W 122°22'0 0.0
2017-May-21 05:22N 37°55' W 122°22'0 0.0
2017-May-21 04:58N 37°55' W 122°22'0 0.0
2017-May-21 04:28N 37°55' W 122°22'0 0.0
2017-May-21 03:58N 37°55' W 122°22'0 0.0
2017-May-21 03:28N 37°55' W 122°22'0 0.0
2017-May-21 02:55N 37°55' W 122°22'0 0.0
2017-May-21 02:28N 37°55' W 122°22'0 0.0
2017-May-21 01:58N 37°55' W 122°22'0 0.0
2017-May-21 01:25N 37°55' W 122°22'0 0.0
2017-May-21 00:58N 37°55' W 122°22'0 0.0
2017-May-21 00:28N 37°55' W 122°22'0 0.0
2017-May-20 23:58N 37°55' W 122°22'0 0.0
2017-May-20 23:25N 37°55' W 122°22'0 0.0
2017-May-20 22:58N 37°55' W 122°22'0 0.0
2017-May-20 22:28N 37°55' W 122°22'0 0.0
2017-May-20 21:58N 37°55' W 122°22'0 0.0
2017-May-20 21:28N 37°55' W 122°22'0 0.0
2017-May-20 20:58N 37°55' W 122°22'0 0.0
2017-May-20 20:30N 37°55' W 122°22'2 5.0
2017-May-20 20:00N 37°55' W 122°25'510.1
2017-May-20 19:29N 38°00' W 122°24'510.6
2017-May-20 19:00N 38°03' W 122°19'610.2
2017-May-20 18:23N 38°03' W 122°11'2 5.8
2017-May-20 18:00N 38°03' W 122°08'0 0.0
2017-May-20 17:29N 38°03' W 122°08'0 0.0
2017-May-20 03:00N 38°02' W 122°08'4 8.9
2017-May-20 02:30N 38°04' W 122°13'5 8.8
2017-May-20 01:58N 38°03' W 122°19'510.1
2017-May-20 01:30N 38°00' W 122°24'510.1
2017-May-20 01:00N 37°55' W 122°26'5 9.4
2017-May-20 00:31N 37°51' W 122°23'4 7.8
2017-May-20 00:00N 37°47' W 122°22'2 2.9
2017-May-19 23:25N 37°46' W 122°20'0 0.0
2017-May-19 22:58N 37°46' W 122°20'0 0.0
2017-May-19 22:25N 37°46' W 122°20'0 0.0
2017-May-19 21:55N 37°46' W 122°20'0 0.3
2017-May-19 21:28N 37°46' W 122°20'0 0.4
2017-May-19 20:58N 37°46' W 122°20'0 0.1
2017-May-19 20:28N 37°46' W 122°21'0 0.0
2017-May-19 20:00N 37°46' W 122°21'1 2.8
2017-May-19 19:30N 37°48' W 122°21'3 5.7
2017-May-19 19:00N 37°48' W 122°17'0 0.0
2017-May-19 18:25N 37°48' W 122°17'0 0.0
2017-May-19 17:58N 37°48' W 122°17'0 0.0
2017-May-19 17:28N 37°48' W 122°17'0 0.0
2017-May-19 16:55N 37°48' W 122°17'0 0.0
2017-May-19 16:28N 37°48' W 122°17'0 0.3
2017-May-19 16:00N 37°48' W 122°17'3 6.6
2017-May-19 15:30N 37°46' W 122°21'1 1.4
2017-May-19 14:59N 37°46' W 122°22'0 0.3
2017-May-19 13:59N 37°46' W 122°21'0 0.1
2017-May-19 13:29N 37°46' W 122°21'0 0.0
2017-May-19 12:59N 37°46' W 122°21'0 0.1
2017-May-19 12:29N 37°46' W 122°21'0 0.1
2017-May-19 11:59N 37°46' W 122°21'0 0.0
2017-May-19 11:29N 37°46' W 122°21'0 0.0
2017-May-19 10:59N 37°46' W 122°21'0 0.0
2017-May-19 10:29N 37°46' W 122°21'0 0.1
2017-May-19 09:59N 37°46' W 122°21'0 0.2
2017-May-19 09:29N 37°46' W 122°21'0 0.1
2017-May-19 08:59N 37°46' W 122°21'0 0.1
2017-May-19 08:29N 37°46' W 122°21'0 0.0
2017-May-19 07:56N 37°46' W 122°21'0 0.0
2017-May-19 07:29N 37°46' W 122°21'0 0.0
2017-May-19 07:00N 37°46' W 122°21'2 3.5
2017-May-19 06:30N 37°47' W 122°22'3 6.9
2017-May-19 06:00N 37°51' W 122°24'4 7.3
2017-May-19 05:30N 37°54' W 122°24'2 4.0
2017-May-19 04:59N 37°55' W 122°22'0 0.0
2017-May-19 04:29N 37°55' W 122°22'0 0.0
2017-May-19 03:41N 37°55' W 122°22'0 0.0
2017-May-19 03:29N 37°55' W 122°22'0 0.0
2017-May-19 02:50N 37°55' W 122°22'0 0.0
2017-May-19 02:26N 37°55' W 122°22'0 0.0
2017-May-19 01:59N 37°55' W 122°22'0 0.0
2017-May-19 01:29N 37°55' W 122°22'0 0.0
2017-May-19 00:59N 37°55' W 122°22'0 0.0
2017-May-19 00:24N 37°55' W 122°22'0 0.0
2017-May-18 23:54N 37°55' W 122°22'0 0.0
2017-May-18 23:30N 37°55' W 122°22'0 0.0
2017-May-18 23:00N 37°55' W 122°22'1 2.3
2017-May-18 22:30N 37°54' W 122°23'3 6.6
2017-May-18 22:00N 37°51' W 122°24'3 5.6
2017-May-18 21:30N 37°48' W 122°24'0 0.0
2017-May-18 21:00N 37°48' W 122°24'0 0.1
2017-May-18 20:26N 37°48' W 122°24'0 0.1
2017-May-18 20:00N 37°48' W 122°24'0 0.0
2017-May-18 19:30N 37°48' W 122°24'0 0.0
2017-May-18 18:59N 37°48' W 122°24'0 0.0
2017-May-18 18:29N 37°48' W 122°24'0 0.1
2017-May-18 17:53N 37°48' W 122°24'0 0.1
2017-May-18 17:29N 37°48' W 122°24'0 0.1
2017-May-18 16:53N 37°48' W 122°24'0 0.0
2017-May-18 16:29N 37°48' W 122°24'0 0.1
2017-May-18 15:59N 37°48' W 122°24'0 0.0
2017-May-18 15:29N 37°48' W 122°24'0 0.1
2017-May-18 14:59N 37°48' W 122°24'0 0.4
2017-May-18 14:00N 37°49' W 122°24'0 0.7
2017-May-18 13:30N 37°49' W 122°24'1 2.1
2017-May-18 13:00N 37°50' W 122°25'3 5.3
2017-May-18 12:31N 37°53' W 122°24'2 4.8
2017-May-18 12:00N 37°54' W 122°22'1 1.2
2017-May-18 11:21N 37°55' W 122°22'0 0.0
2017-May-18 11:00N 37°55' W 122°22'0 0.0
2017-May-18 10:30N 37°55' W 122°22'0 0.0
2017-May-18 09:57N 37°55' W 122°22'0 0.0
2017-May-18 09:24N 37°55' W 122°22'0 0.0
2017-May-18 09:00N 37°55' W 122°22'0 0.0
2017-May-18 08:30N 37°55' W 122°22'0 0.0
2017-May-18 07:54N 37°55' W 122°22'0 0.0
2017-May-18 07:27N 37°55' W 122°22'0 0.0
2017-May-18 06:45N 37°55' W 122°22'0 0.0
2017-May-18 06:15N 37°55' W 122°22'0 0.0
2017-May-18 05:57N 37°55' W 122°22'0 0.0
2017-May-18 05:27N 37°55' W 122°22'0 0.0
2017-May-18 05:00N 37°55' W 122°22'0 0.0
2017-May-18 04:27N 37°55' W 122°22'0 0.0
2017-May-18 04:00N 37°55' W 122°22'0 0.0
2017-May-18 03:30N 37°55' W 122°22'0 0.0
2017-May-18 02:57N 37°55' W 122°22'0 0.0
2017-May-18 02:18N 37°55' W 122°22'0 0.0
2017-May-18 02:00N 37°55' W 122°22'0 0.0
2017-May-18 01:30N 37°55' W 122°22'0 0.0
2017-May-18 00:57N 37°55' W 122°22'0 0.0
2017-May-18 00:30N 37°55' W 122°22'0 0.0
2017-May-18 00:00N 37°55' W 122°22'0 0.0
2017-May-17 23:27N 37°55' W 122°22'0 0.7
2017-May-17 23:00N 37°55' W 122°22'3 5.8
2017-May-17 22:30N 37°52' W 122°24'4 8.0
2017-May-17 22:00N 37°49' W 122°21'2 3.8
2017-May-17 21:30N 37°48' W 122°19'0 0.0
2017-May-17 21:00N 37°48' W 122°19'0 0.0
2017-May-17 20:29N 37°48' W 122°19'0 0.0
2017-May-17 19:59N 37°48' W 122°19'0 0.0
2017-May-17 19:29N 37°48' W 122°19'0 0.0
2017-May-17 18:59N 37°48' W 122°19'0 0.0
2017-May-17 18:29N 37°48' W 122°19'0 0.0
2017-May-17 17:58N 37°48' W 122°19'0 0.0
2017-May-17 17:28N 37°48' W 122°19'0 0.0
2017-May-17 16:58N 37°48' W 122°19'0 0.0
2017-May-17 16:28N 37°48' W 122°19'0 0.0
2017-May-17 15:58N 37°48' W 122°19'0 0.0
2017-May-17 15:28N 37°48' W 122°19'0 0.0
2017-May-17 14:58N 37°48' W 122°19'0 0.0
2017-May-17 14:31N 37°48' W 122°19'2 1.6
2017-May-17 13:31N 37°47' W 122°21'1 1.4
2017-May-17 13:00N 37°46' W 122°20'0 0.1
2017-May-17 12:30N 37°46' W 122°20'0 0.2
2017-May-17 12:00N 37°46' W 122°20'0 0.2
2017-May-17 11:30N 37°46' W 122°20'0 0.1
2017-May-17 11:00N 37°46' W 122°20'0 0.1
2017-May-17 10:30N 37°46' W 122°20'0 0.0
2017-May-17 10:00N 37°46' W 122°20'0 0.0
2017-May-17 09:30N 37°46' W 122°20'0 0.0
2017-May-17 09:00N 37°46' W 122°20'0 0.1
2017-May-17 08:30N 37°46' W 122°20'0 0.0
2017-May-17 07:59N 37°46' W 122°20'0 0.0
2017-May-17 07:30N 37°46' W 122°20'0 0.1
2017-May-17 06:59N 37°46' W 122°20'0 0.1
2017-May-17 06:29N 37°46' W 122°20'0 0.7
2017-May-17 06:00N 37°46' W 122°20'  

Dump ship's entire track history